sensor_id;sensor_type;location;lat;lon;timestamp;pressure;altitude;pressure_sealevel;temperature;humidity
62952;BME280;52163;52.212;-1.002;2023-02-19T00:03:59;101016.55;;;8.69;87.64
62952;BME280;52163;52.212;-1.002;2023-02-19T00:06:26;101024.14;;;8.73;87.39
62952;BME280;52163;52.212;-1.002;2023-02-19T00:08:52;101026.45;;;8.76;87.16
62952;BME280;52163;52.212;-1.002;2023-02-19T00:11:21;101028.27;;;8.79;87.12
62952;BME280;52163;52.212;-1.002;2023-02-19T00:13:49;101024.46;;;8.81;86.85
62952;BME280;52163;52.212;-1.002;2023-02-19T00:16:18;101023.56;;;8.81;86.63
62952;BME280;52163;52.212;-1.002;2023-02-19T00:18:44;101026.09;;;8.80;86.37
62952;BME280;52163;52.212;-1.002;2023-02-19T00:21:10;101030.75;;;8.78;86.10
62952;BME280;52163;52.212;-1.002;2023-02-19T00:23:36;101033.58;;;8.74;86.29
62952;BME280;52163;52.212;-1.002;2023-02-19T00:26:05;101038.89;;;8.69;85.98
62952;BME280;52163;52.212;-1.002;2023-02-19T00:28:31;101042.11;;;8.64;85.97
62952;BME280;52163;52.212;-1.002;2023-02-19T00:31:12;101053.90;;;8.60;85.86
62952;BME280;52163;52.212;-1.002;2023-02-19T00:33:40;101059.16;;;8.57;86.00
62952;BME280;52163;52.212;-1.002;2023-02-19T00:36:06;101061.38;;;8.54;85.85
62952;BME280;52163;52.212;-1.002;2023-02-19T00:38:35;101069.14;;;8.50;85.87
62952;BME280;52163;52.212;-1.002;2023-02-19T00:41:01;101073.16;;;8.46;85.70
62952;BME280;52163;52.212;-1.002;2023-02-19T00:44:04;101072.25;;;8.41;85.68
62952;BME280;52163;52.212;-1.002;2023-02-19T00:49:00;101083.98;;;8.39;85.74
62952;BME280;52163;52.212;-1.002;2023-02-19T00:51:28;101083.77;;;8.40;85.70
62952;BME280;52163;52.212;-1.002;2023-02-19T00:53:55;101084.78;;;8.41;86.01
62952;BME280;52163;52.212;-1.002;2023-02-19T00:56:21;101083.47;;;8.43;85.62
62952;BME280;52163;52.212;-1.002;2023-02-19T00:58:47;101085.38;;;8.43;85.36
62952;BME280;52163;52.212;-1.002;2023-02-19T01:01:13;101087.63;;;8.45;85.21
62952;BME280;52163;52.212;-1.002;2023-02-19T01:03:39;101091.19;;;8.44;85.06
62952;BME280;52163;52.212;-1.002;2023-02-19T01:06:06;101095.20;;;8.45;84.95
62952;BME280;52163;52.212;-1.002;2023-02-19T01:08:33;101102.37;;;8.46;84.58
62952;BME280;52163;52.212;-1.002;2023-02-19T01:10:59;101101.86;;;8.46;84.44
62952;BME280;52163;52.212;-1.002;2023-02-19T01:13:25;101106.04;;;8.47;84.50
62952;BME280;52163;52.212;-1.002;2023-02-19T01:15:53;101113.62;;;8.47;84.13
62952;BME280;52163;52.212;-1.002;2023-02-19T01:18:19;101110.51;;;8.45;84.17
62952;BME280;52163;52.212;-1.002;2023-02-19T01:20:44;101111.51;;;8.42;84.03
62952;BME280;52163;52.212;-1.002;2023-02-19T01:23:11;101112.64;;;8.40;83.47
62952;BME280;52163;52.212;-1.002;2023-02-19T01:25:38;101113.88;;;8.39;83.70
62952;BME280;52163;52.212;-1.002;2023-02-19T01:28:05;101114.10;;;8.38;83.71
62952;BME280;52163;52.212;-1.002;2023-02-19T01:30:35;101113.62;;;8.38;83.79
62952;BME280;52163;52.212;-1.002;2023-02-19T01:33:03;101116.98;;;8.37;83.63
62952;BME280;52163;52.212;-1.002;2023-02-19T01:35:28;101114.73;;;8.36;83.48
62952;BME280;52163;52.212;-1.002;2023-02-19T01:37:54;101111.36;;;8.37;83.39
62952;BME280;52163;52.212;-1.002;2023-02-19T01:40:21;101106.96;;;8.37;83.53
62952;BME280;52163;52.212;-1.002;2023-02-19T01:42:46;101106.29;;;8.36;83.56
62952;BME280;52163;52.212;-1.002;2023-02-19T01:45:30;101103.65;;;8.36;83.47
62952;BME280;52163;52.212;-1.002;2023-02-19T01:48:09;101104.54;;;8.36;83.35
62952;BME280;52163;52.212;-1.002;2023-02-19T01:50:44;101106.88;;;8.35;83.24
62952;BME280;52163;52.212;-1.002;2023-02-19T01:53:13;101110.23;;;8.34;83.33
62952;BME280;52163;52.212;-1.002;2023-02-19T01:55:43;101114.75;;;8.32;83.30
62952;BME280;52163;52.212;-1.002;2023-02-19T01:58:11;101120.89;;;8.28;83.29
62952;BME280;52163;52.212;-1.002;2023-02-19T02:00:36;101121.95;;;8.24;83.18
62952;BME280;52163;52.212;-1.002;2023-02-19T02:03:02;101123.54;;;8.19;83.43
62952;BME280;52163;52.212;-1.002;2023-02-19T02:05:35;101126.49;;;8.15;83.64
62952;BME280;52163;52.212;-1.002;2023-02-19T02:08:03;101131.71;;;8.12;83.68
62952;BME280;52163;52.212;-1.002;2023-02-19T02:10:48;101141.75;;;8.12;83.64
62952;BME280;52163;52.212;-1.002;2023-02-19T02:13:14;101146.79;;;8.14;84.16
62952;BME280;52163;52.212;-1.002;2023-02-19T02:27:05;101173.72;;;8.14;84.01
62952;BME280;52163;52.212;-1.002;2023-02-19T02:30:02;101178.30;;;8.13;84.04
62952;BME280;52163;52.212;-1.002;2023-02-19T02:32:36;101172.09;;;8.15;84.19
62952;BME280;52163;52.212;-1.002;2023-02-19T02:35:10;101175.34;;;8.18;84.37
62952;BME280;52163;52.212;-1.002;2023-02-19T02:37:39;101177.10;;;8.22;84.23
62952;BME280;52163;52.212;-1.002;2023-02-19T02:40:07;101177.77;;;8.27;84.27
62952;BME280;52163;52.212;-1.002;2023-02-19T02:42:38;101185.39;;;8.31;84.10
62952;BME280;52163;52.212;-1.002;2023-02-19T02:48:25;101179.16;;;8.32;83.64
62952;BME280;52163;52.212;-1.002;2023-02-19T02:50:59;101178.81;;;8.32;83.67
62952;BME280;52163;52.212;-1.002;2023-02-19T02:53:30;101178.11;;;8.32;83.81
62952;BME280;52163;52.212;-1.002;2023-02-19T02:56:17;101185.65;;;8.33;83.88
62952;BME280;52163;52.212;-1.002;2023-02-19T02:58:45;101191.23;;;8.34;83.89
62952;BME280;52163;52.212;-1.002;2023-02-19T03:01:22;101199.20;;;8.37;83.74
62952;BME280;52163;52.212;-1.002;2023-02-19T03:04:14;101196.01;;;8.38;83.35
62952;BME280;52163;52.212;-1.002;2023-02-19T03:06:42;101197.27;;;8.37;83.58
62952;BME280;52163;52.212;-1.002;2023-02-19T03:09:26;101202.95;;;8.36;83.75
62952;BME280;52163;52.212;-1.002;2023-02-19T03:11:56;101214.55;;;8.36;83.69
62952;BME280;52163;52.212;-1.002;2023-02-19T03:14:47;101220.10;;;8.38;83.27
62952;BME280;52163;52.212;-1.002;2023-02-19T03:18:06;101217.52;;;8.40;83.45
62952;BME280;52163;52.212;-1.002;2023-02-19T03:20:54;101215.75;;;8.42;83.24
62952;BME280;52163;52.212;-1.002;2023-02-19T03:23:25;101214.16;;;8.41;83.37
62952;BME280;52163;52.212;-1.002;2023-02-19T03:26:12;101220.52;;;8.41;83.09
62952;BME280;52163;52.212;-1.002;2023-02-19T03:28:41;101222.66;;;8.40;83.32
62952;BME280;52163;52.212;-1.002;2023-02-19T03:31:28;101226.02;;;8.40;83.03
62952;BME280;52163;52.212;-1.002;2023-02-19T03:33:58;101228.81;;;8.40;82.93
62952;BME280;52163;52.212;-1.002;2023-02-19T03:36:36;101227.50;;;8.42;82.88
62952;BME280;52163;52.212;-1.002;2023-02-19T03:39:07;101231.70;;;8.43;82.92
62952;BME280;52163;52.212;-1.002;2023-02-19T03:41:51;101232.92;;;8.43;82.97
62952;BME280;52163;52.212;-1.002;2023-02-19T03:49:34;101235.75;;;8.38;83.07
62952;BME280;52163;52.212;-1.002;2023-02-19T03:52:20;101243.48;;;8.39;83.14
62952;BME280;52163;52.212;-1.002;2023-02-19T03:55:00;101244.35;;;8.39;83.19
62952;BME280;52163;52.212;-1.002;2023-02-19T03:57:59;101245.08;;;8.39;83.23
62952;BME280;52163;52.212;-1.002;2023-02-19T04:05:40;101267.16;;;8.33;82.96
62952;BME280;52163;52.212;-1.002;2023-02-19T04:08:13;101276.80;;;8.29;83.09
62952;BME280;52163;52.212;-1.002;2023-02-19T04:10:39;101279.89;;;8.26;82.98
62952;BME280;52163;52.212;-1.002;2023-02-19T04:13:11;101287.52;;;8.25;83.07
62952;BME280;52163;52.212;-1.002;2023-02-19T04:15:40;101285.73;;;8.25;83.08
62952;BME280;52163;52.212;-1.002;2023-02-19T04:18:20;101290.59;;;8.27;83.09
62952;BME280;52163;52.212;-1.002;2023-02-19T04:20:47;101289.83;;;8.29;83.30
62952;BME280;52163;52.212;-1.002;2023-02-19T04:23:16;101290.87;;;8.30;82.88
62952;BME280;52163;52.212;-1.002;2023-02-19T04:25:46;101298.44;;;8.29;83.06
62952;BME280;52163;52.212;-1.002;2023-02-19T04:28:13;101300.79;;;8.28;83.04
62952;BME280;52163;52.212;-1.002;2023-02-19T04:30:41;101302.80;;;8.26;83.06
62952;BME280;52163;52.212;-1.002;2023-02-19T04:33:07;101301.97;;;8.24;82.97
62952;BME280;52163;52.212;-1.002;2023-02-19T04:35:33;101301.42;;;8.25;83.17
62952;BME280;52163;52.212;-1.002;2023-02-19T04:37:58;101301.73;;;8.26;83.26
62952;BME280;52163;52.212;-1.002;2023-02-19T04:40:24;101305.52;;;8.29;83.40
62952;BME280;52163;52.212;-1.002;2023-02-19T04:42:50;101303.52;;;8.30;83.71
62952;BME280;52163;52.212;-1.002;2023-02-19T04:45:15;101309.17;;;8.30;83.57
62952;BME280;52163;52.212;-1.002;2023-02-19T04:47:40;101311.45;;;8.30;84.12
62952;BME280;52163;52.212;-1.002;2023-02-19T04:50:06;101308.27;;;8.31;83.99
62952;BME280;52163;52.212;-1.002;2023-02-19T04:52:32;101309.73;;;8.29;84.30
62952;BME280;52163;52.212;-1.002;2023-02-19T04:54:57;101313.06;;;8.29;84.09
62952;BME280;52163;52.212;-1.002;2023-02-19T04:57:23;101314.45;;;8.30;84.06
62952;BME280;52163;52.212;-1.002;2023-02-19T04:59:48;101321.22;;;8.32;84.17
62952;BME280;52163;52.212;-1.002;2023-02-19T05:02:13;101325.52;;;8.35;84.12
62952;BME280;52163;52.212;-1.002;2023-02-19T05:04:40;101337.91;;;8.38;83.96
62952;BME280;52163;52.212;-1.002;2023-02-19T05:07:05;101340.11;;;8.40;83.50
62952;BME280;52163;52.212;-1.002;2023-02-19T05:09:31;101346.67;;;8.39;83.27
62952;BME280;52163;52.212;-1.002;2023-02-19T05:11:56;101354.96;;;8.38;83.49
62952;BME280;52163;52.212;-1.002;2023-02-19T05:14:21;101363.27;;;8.37;83.15
62952;BME280;52163;52.212;-1.002;2023-02-19T05:16:47;101367.59;;;8.35;83.25
62952;BME280;52163;52.212;-1.002;2023-02-19T05:19:13;101374.16;;;8.33;83.25
62952;BME280;52163;52.212;-1.002;2023-02-19T05:21:39;101383.65;;;8.34;83.31
62952;BME280;52163;52.212;-1.002;2023-02-19T05:24:05;101386.63;;;8.34;83.22
62952;BME280;52163;52.212;-1.002;2023-02-19T05:26:31;101392.59;;;8.35;83.35
62952;BME280;52163;52.212;-1.002;2023-02-19T05:28:56;101400.48;;;8.36;83.68
62952;BME280;52163;52.212;-1.002;2023-02-19T05:31:22;101410.88;;;8.35;83.47
62952;BME280;52163;52.212;-1.002;2023-02-19T05:33:48;101410.59;;;8.34;83.45
62952;BME280;52163;52.212;-1.002;2023-02-19T05:36:19;101407.35;;;8.31;83.39
62952;BME280;52163;52.212;-1.002;2023-02-19T05:38:45;101404.20;;;8.25;83.34
62952;BME280;52163;52.212;-1.002;2023-02-19T05:41:20;101400.05;;;8.19;83.31
62952;BME280;52163;52.212;-1.002;2023-02-19T05:43:47;101404.81;;;8.13;83.37
62952;BME280;52163;52.212;-1.002;2023-02-19T05:46:14;101413.45;;;8.08;83.44
62952;BME280;52163;52.212;-1.002;2023-02-19T05:48:40;101421.17;;;8.04;83.23
62952;BME280;52163;52.212;-1.002;2023-02-19T05:51:08;101425.02;;;7.99;82.95
62952;BME280;52163;52.212;-1.002;2023-02-19T05:53:35;101426.96;;;7.94;82.42
62952;BME280;52163;52.212;-1.002;2023-02-19T05:56:01;101430.02;;;7.86;81.85
62952;BME280;52163;52.212;-1.002;2023-02-19T05:58:27;101438.86;;;7.79;81.95
62952;BME280;52163;52.212;-1.002;2023-02-19T06:00:53;101442.41;;;7.74;81.59
62952;BME280;52163;52.212;-1.002;2023-02-19T06:03:19;101448.74;;;7.68;81.58
62952;BME280;52163;52.212;-1.002;2023-02-19T06:05:44;101456.48;;;7.63;81.22
62952;BME280;52163;52.212;-1.002;2023-02-19T06:08:14;101452.27;;;7.58;80.96
62952;BME280;52163;52.212;-1.002;2023-02-19T06:10:40;101451.41;;;7.51;80.92
62952;BME280;52163;52.212;-1.002;2023-02-19T06:13:09;101453.20;;;7.45;80.82
62952;BME280;52163;52.212;-1.002;2023-02-19T06:15:37;101453.23;;;7.38;80.79
62952;BME280;52163;52.212;-1.002;2023-02-19T06:18:03;101448.52;;;7.32;80.73
62952;BME280;52163;52.212;-1.002;2023-02-19T06:20:28;101453.41;;;7.27;81.09
62952;BME280;52163;52.212;-1.002;2023-02-19T06:22:54;101450.35;;;7.24;81.19
62952;BME280;52163;52.212;-1.002;2023-02-19T06:25:20;101446.77;;;7.20;81.12
62952;BME280;52163;52.212;-1.002;2023-02-19T06:27:45;101450.77;;;7.16;81.24
62952;BME280;52163;52.212;-1.002;2023-02-19T06:30:11;101447.21;;;7.12;81.29
62952;BME280;52163;52.212;-1.002;2023-02-19T06:32:37;101446.96;;;7.08;81.26
62952;BME280;52163;52.212;-1.002;2023-02-19T06:35:03;101443.43;;;7.03;81.26
62952;BME280;52163;52.212;-1.002;2023-02-19T06:37:28;101443.67;;;7.01;81.39
62952;BME280;52163;52.212;-1.002;2023-02-19T06:39:54;101450.40;;;6.99;81.42
62952;BME280;52163;52.212;-1.002;2023-02-19T06:42:19;101455.02;;;6.97;81.55
62952;BME280;52163;52.212;-1.002;2023-02-19T06:44:45;101463.34;;;6.94;81.64
62952;BME280;52163;52.212;-1.002;2023-02-19T06:47:10;101471.34;;;6.91;81.63
62952;BME280;52163;52.212;-1.002;2023-02-19T06:49:38;101475.10;;;6.89;81.51
62952;BME280;52163;52.212;-1.002;2023-02-19T06:52:03;101476.94;;;6.87;81.47
62952;BME280;52163;52.212;-1.002;2023-02-19T06:54:29;101479.99;;;6.84;81.57
62952;BME280;52163;52.212;-1.002;2023-02-19T06:56:55;101483.52;;;6.83;81.70
62952;BME280;52163;52.212;-1.002;2023-02-19T06:59:23;101482.33;;;6.82;81.71
62952;BME280;52163;52.212;-1.002;2023-02-19T07:01:49;101491.29;;;6.82;81.30
62952;BME280;52163;52.212;-1.002;2023-02-19T07:04:14;101504.79;;;6.83;81.09
62952;BME280;52163;52.212;-1.002;2023-02-19T07:06:40;101509.73;;;6.82;80.82
62952;BME280;52163;52.212;-1.002;2023-02-19T07:09:07;101514.86;;;6.81;80.75
62952;BME280;52163;52.212;-1.002;2023-02-19T07:11:35;101515.94;;;6.80;80.49
62952;BME280;52163;52.212;-1.002;2023-02-19T07:14:03;101507.92;;;6.78;80.50
62952;BME280;52163;52.212;-1.002;2023-02-19T07:16:29;101509.02;;;6.76;80.56
62952;BME280;52163;52.212;-1.002;2023-02-19T07:18:56;101514.88;;;6.74;80.58
62952;BME280;52163;52.212;-1.002;2023-02-19T07:21:22;101520.38;;;6.72;80.73
62952;BME280;52163;52.212;-1.002;2023-02-19T07:23:48;101527.39;;;6.73;80.78
62952;BME280;52163;52.212;-1.002;2023-02-19T07:26:15;101523.52;;;6.73;80.94
62952;BME280;52163;52.212;-1.002;2023-02-19T07:28:43;101524.37;;;6.74;81.07
62952;BME280;52163;52.212;-1.002;2023-02-19T07:31:09;101533.48;;;6.74;81.07
62952;BME280;52163;52.212;-1.002;2023-02-19T07:33:34;101538.09;;;6.73;80.95
62952;BME280;52163;52.212;-1.002;2023-02-19T07:36:00;101542.83;;;6.73;80.91
62952;BME280;52163;52.212;-1.002;2023-02-19T07:38:26;101551.29;;;6.72;80.69
62952;BME280;52163;52.212;-1.002;2023-02-19T07:40:55;101557.63;;;6.71;80.58
62952;BME280;52163;52.212;-1.002;2023-02-19T07:43:25;101565.34;;;6.72;80.48
62952;BME280;52163;52.212;-1.002;2023-02-19T07:45:51;101573.38;;;6.73;80.59
62952;BME280;52163;52.212;-1.002;2023-02-19T07:48:17;101580.55;;;6.75;80.59
62952;BME280;52163;52.212;-1.002;2023-02-19T07:50:58;101588.23;;;6.76;80.41
62952;BME280;52163;52.212;-1.002;2023-02-19T07:53:25;101615.23;;;6.78;80.37
62952;BME280;52163;52.212;-1.002;2023-02-19T07:55:51;101628.04;;;6.78;80.32
62952;BME280;52163;52.212;-1.002;2023-02-19T07:58:17;101620.45;;;6.79;80.30
62952;BME280;52163;52.212;-1.002;2023-02-19T08:00:42;101607.92;;;6.82;80.49
62952;BME280;52163;52.212;-1.002;2023-02-19T08:03:08;101595.39;;;6.84;80.58
62952;BME280;52163;52.212;-1.002;2023-02-19T08:05:39;101594.99;;;6.86;80.63
62952;BME280;52163;52.212;-1.002;2023-02-19T08:08:12;101601.09;;;6.87;80.65
62952;BME280;52163;52.212;-1.002;2023-02-19T08:10:39;101596.70;;;6.87;80.67
62952;BME280;52163;52.212;-1.002;2023-02-19T08:13:24;101594.47;;;6.86;80.73
62952;BME280;52163;52.212;-1.002;2023-02-19T08:18:25;101602.27;;;6.83;80.89
62952;BME280;52163;52.212;-1.002;2023-02-19T08:20:51;101585.96;;;6.82;80.90
62952;BME280;52163;52.212;-1.002;2023-02-19T08:23:17;101573.52;;;6.81;81.02
62952;BME280;52163;52.212;-1.002;2023-02-19T08:25:45;101555.30;;;6.80;81.17
62952;BME280;52163;52.212;-1.002;2023-02-19T08:28:11;101567.39;;;6.80;81.42
62952;BME280;52163;52.212;-1.002;2023-02-19T08:30:38;101572.33;;;6.80;81.41
62952;BME280;52163;52.212;-1.002;2023-02-19T08:33:05;101574.76;;;6.81;81.54
62952;BME280;52163;52.212;-1.002;2023-02-19T08:35:33;101583.52;;;6.81;81.61
62952;BME280;52163;52.212;-1.002;2023-02-19T08:38:00;101588.96;;;6.82;81.59
62952;BME280;52163;52.212;-1.002;2023-02-19T08:40:26;101586.49;;;6.82;81.65
62952;BME280;52163;52.212;-1.002;2023-02-19T08:42:52;101593.52;;;6.82;81.55
62952;BME280;52163;52.212;-1.002;2023-02-19T08:45:18;101607.73;;;6.82;81.71
62952;BME280;52163;52.212;-1.002;2023-02-19T08:47:44;101612.59;;;6.84;81.80
62952;BME280;52163;52.212;-1.002;2023-02-19T08:50:09;101612.80;;;6.89;81.94
62952;BME280;52163;52.212;-1.002;2023-02-19T08:52:35;101613.73;;;6.94;81.83
62952;BME280;52163;52.212;-1.002;2023-02-19T08:55:02;101613.19;;;7.02;81.78
62952;BME280;52163;52.212;-1.002;2023-02-19T08:57:28;101623.52;;;7.09;81.87
62952;BME280;52163;52.212;-1.002;2023-02-19T08:59:54;101631.73;;;7.17;81.65
62952;BME280;52163;52.212;-1.002;2023-02-19T09:02:22;101639.95;;;7.24;81.59
62952;BME280;52163;52.212;-1.002;2023-02-19T09:04:48;101635.59;;;7.30;81.48
62952;BME280;52163;52.212;-1.002;2023-02-19T09:07:17;101630.75;;;7.33;81.15
62952;BME280;52163;52.212;-1.002;2023-02-19T09:09:42;101639.23;;;7.37;80.96
62952;BME280;52163;52.212;-1.002;2023-02-19T09:12:11;101653.40;;;7.40;80.52
62952;BME280;52163;52.212;-1.002;2023-02-19T09:14:37;101664.19;;;7.44;80.57
62952;BME280;52163;52.212;-1.002;2023-02-19T09:17:05;101672.55;;;7.46;80.34
62952;BME280;52163;52.212;-1.002;2023-02-19T09:19:32;101677.27;;;7.48;79.95
62952;BME280;52163;52.212;-1.002;2023-02-19T09:21:58;101681.48;;;7.49;79.52
62952;BME280;52163;52.212;-1.002;2023-02-19T09:24:23;101677.60;;;7.48;79.14
62952;BME280;52163;52.212;-1.002;2023-02-19T09:26:50;101662.82;;;7.49;78.86
62952;BME280;52163;52.212;-1.002;2023-02-19T09:29:16;101655.00;;;7.52;79.07
62952;BME280;52163;52.212;-1.002;2023-02-19T09:31:42;101644.34;;;7.56;78.93
62952;BME280;52163;52.212;-1.002;2023-02-19T09:34:08;101630.63;;;7.61;78.81
62952;BME280;52163;52.212;-1.002;2023-02-19T09:36:37;101630.63;;;7.67;78.79
62952;BME280;52163;52.212;-1.002;2023-02-19T09:39:03;101627.65;;;7.73;78.41
62952;BME280;52163;52.212;-1.002;2023-02-19T09:41:34;101636.45;;;7.78;78.58
62952;BME280;52163;52.212;-1.002;2023-02-19T09:44:02;101639.01;;;7.87;78.03
62952;BME280;52163;52.212;-1.002;2023-02-19T09:49:02;101646.58;;;8.04;77.59
62952;BME280;52163;52.212;-1.002;2023-02-19T09:51:31;101663.90;;;8.12;77.22
62952;BME280;52163;52.212;-1.002;2023-02-19T09:53:59;101659.92;;;8.21;77.21
62952;BME280;52163;52.212;-1.002;2023-02-19T09:56:26;101664.61;;;8.29;76.50
62952;BME280;52163;52.212;-1.002;2023-02-19T09:58:53;101673.98;;;8.33;76.33
62952;BME280;52163;52.212;-1.002;2023-02-19T10:01:22;101678.31;;;8.40;76.48
62952;BME280;52163;52.212;-1.002;2023-02-19T10:03:49;101687.81;;;8.47;75.98
62952;BME280;52163;52.212;-1.002;2023-02-19T10:06:23;101693.21;;;8.55;75.95
62952;BME280;52163;52.212;-1.002;2023-02-19T10:08:52;101695.66;;;8.60;75.48
62952;BME280;52163;52.212;-1.002;2023-02-19T10:11:18;101691.88;;;8.63;75.43
62952;BME280;52163;52.212;-1.002;2023-02-19T10:13:50;101690.94;;;8.65;75.17
62952;BME280;52163;52.212;-1.002;2023-02-19T10:16:23;101703.89;;;8.67;75.39
62952;BME280;52163;52.212;-1.002;2023-02-19T10:18:50;101706.23;;;8.71;75.21
62952;BME280;52163;52.212;-1.002;2023-02-19T10:21:26;101697.09;;;8.76;75.13
62952;BME280;52163;52.212;-1.002;2023-02-19T10:23:58;101690.09;;;8.80;74.83
62952;BME280;52163;52.212;-1.002;2023-02-19T10:26:26;101691.40;;;8.82;74.52
62952;BME280;52163;52.212;-1.002;2023-02-19T10:28:52;101687.71;;;8.82;74.61
62952;BME280;52163;52.212;-1.002;2023-02-19T10:31:23;101694.02;;;8.83;74.11
62952;BME280;52163;52.212;-1.002;2023-02-19T10:33:52;101692.41;;;8.84;74.11
62952;BME280;52163;52.212;-1.002;2023-02-19T10:38:52;101707.11;;;8.93;73.53
62952;BME280;52163;52.212;-1.002;2023-02-19T10:41:20;101708.35;;;8.97;73.68
62952;BME280;52163;52.212;-1.002;2023-02-19T10:44:02;101711.63;;;8.99;73.55
62952;BME280;52163;52.212;-1.002;2023-02-19T10:46:33;101706.29;;;9.01;73.43
62952;BME280;52163;52.212;-1.002;2023-02-19T10:49:05;101702.88;;;9.03;73.62
62952;BME280;52163;52.212;-1.002;2023-02-19T10:51:39;101698.80;;;9.04;73.23
62952;BME280;52163;52.212;-1.002;2023-02-19T10:54:15;101705.49;;;9.04;73.47
62952;BME280;52163;52.212;-1.002;2023-02-19T10:56:41;101707.33;;;9.07;73.97
62952;BME280;52163;52.212;-1.002;2023-02-19T10:59:14;101704.29;;;9.12;74.09
62952;BME280;52163;52.212;-1.002;2023-02-19T11:01:58;101702.99;;;9.19;73.49
62952;BME280;52163;52.212;-1.002;2023-02-19T11:04:26;101697.71;;;9.34;73.55
62952;BME280;52163;52.212;-1.002;2023-02-19T11:06:53;101698.17;;;9.50;73.55
62952;BME280;52163;52.212;-1.002;2023-02-19T11:09:33;101697.81;;;9.70;72.86
62952;BME280;52163;52.212;-1.002;2023-02-19T11:12:02;101697.86;;;9.91;72.52
62952;BME280;52163;52.212;-1.002;2023-02-19T11:14:30;101690.66;;;10.13;72.09
62952;BME280;52163;52.212;-1.002;2023-02-19T11:16:57;101690.23;;;10.33;71.02
62952;BME280;52163;52.212;-1.002;2023-02-19T11:22:16;101685.83;;;10.64;69.83
62952;BME280;52163;52.212;-1.002;2023-02-19T11:24:47;101687.46;;;10.76;69.31
62952;BME280;52163;52.212;-1.002;2023-02-19T11:27:23;101685.13;;;10.85;69.34
62952;BME280;52163;52.212;-1.002;2023-02-19T11:29:49;101686.52;;;10.94;68.87
62952;BME280;52163;52.212;-1.002;2023-02-19T11:32:35;101684.70;;;10.99;68.53
62952;BME280;52163;52.212;-1.002;2023-02-19T11:35:18;101683.25;;;11.00;68.28
62952;BME280;52163;52.212;-1.002;2023-02-19T11:37:58;101685.67;;;11.01;68.02
62952;BME280;52163;52.212;-1.002;2023-02-19T11:40:42;101680.77;;;11.04;67.67
62952;BME280;52163;52.212;-1.002;2023-02-19T11:46:00;101682.08;;;11.15;67.26
62952;BME280;52163;52.212;-1.002;2023-02-19T11:48:42;101676.39;;;11.23;67.51
62952;BME280;52163;52.212;-1.002;2023-02-19T11:51:29;101680.24;;;11.32;67.10
62952;BME280;52163;52.212;-1.002;2023-02-19T12:16:19;101655.58;;;11.76;66.83
62952;BME280;52163;52.212;-1.002;2023-02-19T12:27:11;101643.11;;;11.70;66.47
62952;BME280;52163;52.212;-1.002;2023-02-19T12:30:10;101637.23;;;11.64;66.33
62952;BME280;52163;52.212;-1.002;2023-02-19T12:38:31;101633.25;;;11.54;65.82
62952;BME280;52163;52.212;-1.002;2023-02-19T12:44:00;101628.73;;;11.49;65.54
62952;BME280;52163;52.212;-1.002;2023-02-19T12:46:41;101621.49;;;11.44;65.50
62952;BME280;52163;52.212;-1.002;2023-02-19T12:49:25;101624.02;;;11.43;65.65
62952;BME280;52163;52.212;-1.002;2023-02-19T12:52:00;101627.99;;;11.42;65.80
62952;BME280;52163;52.212;-1.002;2023-02-19T12:54:37;101632.84;;;11.40;65.98
62952;BME280;52163;52.212;-1.002;2023-02-19T12:59:42;101627.75;;;11.31;65.92
62952;BME280;52163;52.212;-1.002;2023-02-19T13:07:24;101605.68;;;11.19;66.05
62952;BME280;52163;52.212;-1.002;2023-02-19T13:09:59;101598.18;;;11.16;66.07
62952;BME280;52163;52.212;-1.002;2023-02-19T13:12:32;101599.92;;;11.13;65.85
62952;BME280;52163;52.212;-1.002;2023-02-19T13:15:01;101601.77;;;11.11;66.32
62952;BME280;52163;52.212;-1.002;2023-02-19T13:17:43;101607.02;;;11.09;66.64
62952;BME280;52163;52.212;-1.002;2023-02-19T13:20:33;101605.95;;;11.08;66.61
62952;BME280;52163;52.212;-1.002;2023-02-19T13:36:38;101567.45;;;11.12;65.44
62952;BME280;52163;52.212;-1.002;2023-02-19T13:39:06;101561.38;;;11.13;65.57
62952;BME280;52163;52.212;-1.002;2023-02-19T13:41:49;101565.88;;;11.15;65.88
62952;BME280;52163;52.212;-1.002;2023-02-19T13:44:20;101570.83;;;11.19;65.76
62952;BME280;52163;52.212;-1.002;2023-02-19T13:46:49;101572.64;;;11.22;65.59
62952;BME280;52163;52.212;-1.002;2023-02-19T13:52:00;101582.57;;;11.25;65.69
62952;BME280;52163;52.212;-1.002;2023-02-19T13:54:28;101602.99;;;11.27;65.14
62952;BME280;52163;52.212;-1.002;2023-02-19T13:59:58;101595.06;;;11.27;64.31
62952;BME280;52163;52.212;-1.002;2023-02-19T14:02:31;101589.52;;;11.24;64.19
62952;BME280;52163;52.212;-1.002;2023-02-19T14:04:58;101583.19;;;11.23;63.96
62952;BME280;52163;52.212;-1.002;2023-02-19T14:09:52;101589.23;;;11.23;64.38
62952;BME280;52163;52.212;-1.002;2023-02-19T14:12:20;101587.94;;;11.24;64.40
62952;BME280;52163;52.212;-1.002;2023-02-19T14:14:53;101597.45;;;11.25;64.37
62952;BME280;52163;52.212;-1.002;2023-02-19T14:19:59;101585.63;;;11.28;64.39
62952;BME280;52163;52.212;-1.002;2023-02-19T14:26:01;101584.58;;;11.28;64.29
62952;BME280;52163;52.212;-1.002;2023-02-19T14:28:36;101582.83;;;11.27;64.56
62952;BME280;52163;52.212;-1.002;2023-02-19T14:33:48;101573.23;;;11.25;64.85
62952;BME280;52163;52.212;-1.002;2023-02-19T14:36:34;101569.58;;;11.23;64.89
62952;BME280;52163;52.212;-1.002;2023-02-19T14:39:05;101568.02;;;11.23;64.89
62952;BME280;52163;52.212;-1.002;2023-02-19T14:41:37;101567.33;;;11.22;64.80
62952;BME280;52163;52.212;-1.002;2023-02-19T14:44:12;101567.71;;;11.21;64.75
62952;BME280;52163;52.212;-1.002;2023-02-19T14:49:28;101555.17;;;11.21;65.06
62952;BME280;52163;52.212;-1.002;2023-02-19T14:52:09;101540.34;;;11.21;65.08
62952;BME280;52163;52.212;-1.002;2023-02-19T14:57:12;101525.36;;;11.19;64.75
62952;BME280;52163;52.212;-1.002;2023-02-19T14:59:51;101521.26;;;11.20;65.14
62952;BME280;52163;52.212;-1.002;2023-02-19T15:02:17;101521.41;;;11.21;65.19
62952;BME280;52163;52.212;-1.002;2023-02-19T15:04:45;101520.52;;;11.21;65.34
62952;BME280;52163;52.212;-1.002;2023-02-19T15:07:16;101520.80;;;11.22;65.40
62952;BME280;52163;52.212;-1.002;2023-02-19T15:09:46;101522.72;;;11.23;65.21